sensor_id;sensor_type;location;lat;lon;timestamp;temperature;humidity
1644;DHT22;46825;51.99869940;8.49421771;2023-05-07T00:00:34;13.20;99.90
1644;DHT22;46825;51.99869940;8.49421771;2023-05-07T00:01:34;13.20;99.90
1644;DHT22;46825;51.99869940;8.49421771;2023-05-07T00:04:39;13.10;99.90
1644;DHT22;46825;51.99869940;8.49421771;2023-05-07T00:05:39;13.10;99.90
1644;DHT22;46825;51.99869940;8.49421771;2023-05-07T00:06:41;13.10;99.90
1644;DHT22;46825;51.99869940;8.49421771;2023-05-07T00:07:42;13.10;99.90
1644;DHT22;46825;51.99869940;8.49421771;2023-05-07T00:08:42;13.10;99.90
1644;DHT22;46825;51.99869940;8.49421771;2023-05-07T00:09:43;13.10;99.90
1644;DHT22;46825;51.99869940;8.49421771;2023-05-07T00:10:44;13.00;99.90
1644;DHT22;46825;51.99869940;8.49421771;2023-05-07T00:12:46;13.10;99.90
1644;DHT22;46825;51.99869940;8.49421771;2023-05-07T00:13:47;13.10;99.90
1644;DHT22;46825;51.99869940;8.49421771;2023-05-07T00:14:48;13.00;99.90
1644;DHT22;46825;51.99869940;8.49421771;2023-05-07T00:15:48;13.00;99.90
1644;DHT22;46825;51.99869940;8.49421771;2023-05-07T00:16:49;13.10;99.90
1644;DHT22;46825;51.99869940;8.49421771;2023-05-07T00:18:50;13.00;99.90
1644;DHT22;46825;51.99869940;8.49421771;2023-05-07T00:19:51;13.00;99.90
1644;DHT22;46825;51.99869940;8.49421771;2023-05-07T00:22:54;12.80;99.90
1644;DHT22;46825;51.99869940;8.49421771;2023-05-07T00:23:54;12.80;99.90
1644;DHT22;46825;51.99869940;8.49421771;2023-05-07T00:24:55;12.80;99.90
1644;DHT22;46825;51.99869940;8.49421771;2023-05-07T00:25:56;12.80;99.90
1644;DHT22;46825;51.99869940;8.49421771;2023-05-07T00:27:58;12.80;99.90
1644;DHT22;46825;51.99869940;8.49421771;2023-05-07T00:29:04;12.90;99.90
1644;DHT22;46825;51.99869940;8.49421771;2023-05-07T00:31:06;12.80;99.90
1644;DHT22;46825;51.99869940;8.49421771;2023-05-07T00:32:07;12.80;99.90
1644;DHT22;46825;51.99869940;8.49421771;2023-05-07T00:33:08;12.80;99.90
1644;DHT22;46825;51.99869940;8.49421771;2023-05-07T00:34:09;12.80;99.90
1644;DHT22;46825;51.99869940;8.49421771;2023-05-07T00:35:09;12.80;99.90
1644;DHT22;46825;51.99869940;8.49421771;2023-05-07T00:36:10;12.80;99.90
1644;DHT22;46825;51.99869940;8.49421771;2023-05-07T00:37:10;12.80;99.90
1644;DHT22;46825;51.99869940;8.49421771;2023-05-07T00:38:12;12.90;99.90
1644;DHT22;46825;51.99869940;8.49421771;2023-05-07T00:40:13;12.80;99.90
1644;DHT22;46825;51.99869940;8.49421771;2023-05-07T00:41:15;12.80;99.90
1644;DHT22;46825;51.99869940;8.49421771;2023-05-07T00:42:15;12.80;99.90
1644;DHT22;46825;51.99869940;8.49421771;2023-05-07T00:43:16;12.80;99.90
1644;DHT22;46825;51.99869940;8.49421771;2023-05-07T00:44:17;12.80;99.90
1644;DHT22;46825;51.99869940;8.49421771;2023-05-07T00:45:18;12.70;99.90
1644;DHT22;46825;51.99869940;8.49421771;2023-05-07T00:46:20;12.70;99.90
1644;DHT22;46825;51.99869940;8.49421771;2023-05-07T00:48:22;12.80;99.90
1644;DHT22;46825;51.99869940;8.49421771;2023-05-07T00:49:34;12.80;99.90
1644;DHT22;46825;51.99869940;8.49421771;2023-05-07T00:50:36;12.70;99.90
1644;DHT22;46825;51.99869940;8.49421771;2023-05-07T00:51:37;12.70;99.90
1644;DHT22;46825;51.99869940;8.49421771;2023-05-07T00:52:38;12.80;99.90
1644;DHT22;46825;51.99869940;8.49421771;2023-05-07T00:54:40;12.80;99.90
1644;DHT22;46825;51.99869940;8.49421771;2023-05-07T00:55:41;12.80;99.90
1644;DHT22;46825;51.99869940;8.49421771;2023-05-07T00:56:42;12.80;99.90
1644;DHT22;46825;51.99869940;8.49421771;2023-05-07T00:58:44;12.70;99.90
1644;DHT22;46825;51.99869940;8.49421771;2023-05-07T00:59:45;12.70;99.90
1644;DHT22;46825;51.99869940;8.49421771;2023-05-07T01:00:46;12.80;99.90
1644;DHT22;46825;51.99869940;8.49421771;2023-05-07T01:01:46;12.80;99.90
1644;DHT22;46825;51.99869940;8.49421771;2023-05-07T01:02:47;12.80;99.90
1644;DHT22;46825;51.99869940;8.49421771;2023-05-07T01:03:47;12.80;99.90
1644;DHT22;46825;51.99869940;8.49421771;2023-05-07T01:04:48;12.70;99.90
1644;DHT22;46825;51.99869940;8.49421771;2023-05-07T01:05:49;12.70;99.90
1644;DHT22;46825;51.99869940;8.49421771;2023-05-07T01:06:52;12.70;99.90
1644;DHT22;46825;51.99869940;8.49421771;2023-05-07T01:10:17;12.60;99.90
1644;DHT22;46825;51.99869940;8.49421771;2023-05-07T01:11:18;12.60;99.90
1644;DHT22;46825;51.99869940;8.49421771;2023-05-07T01:12:21;12.60;99.90
1644;DHT22;46825;51.99869940;8.49421771;2023-05-07T01:13:22;12.70;99.90
1644;DHT22;46825;51.99869940;8.49421771;2023-05-07T01:14:23;12.60;99.90
1644;DHT22;46825;51.99869940;8.49421771;2023-05-07T01:15:24;12.60;99.90
1644;DHT22;46825;51.99869940;8.49421771;2023-05-07T01:16:24;12.60;99.90
1644;DHT22;46825;51.99869940;8.49421771;2023-05-07T01:17:25;12.60;99.90
1644;DHT22;46825;51.99869940;8.49421771;2023-05-07T01:19:28;12.60;99.90
1644;DHT22;46825;51.99869940;8.49421771;2023-05-07T01:20:30;12.60;99.90
1644;DHT22;46825;51.99869940;8.49421771;2023-05-07T01:21:33;12.60;99.90
1644;DHT22;46825;51.99869940;8.49421771;2023-05-07T01:22:35;12.60;99.90
1644;DHT22;46825;51.99869940;8.49421771;2023-05-07T01:23:39;12.50;99.90
1644;DHT22;46825;51.99869940;8.49421771;2023-05-07T01:24:41;12.50;99.90
1644;DHT22;46825;51.99869940;8.49421771;2023-05-07T01:25:42;12.50;99.90
1644;DHT22;46825;51.99869940;8.49421771;2023-05-07T01:26:44;12.50;99.90
1644;DHT22;46825;51.99869940;8.49421771;2023-05-07T01:29:49;12.40;99.90
1644;DHT22;46825;51.99869940;8.49421771;2023-05-07T01:30:53;12.40;99.90
1644;DHT22;46825;51.99869940;8.49421771;2023-05-07T01:32:00;12.50;99.90
1644;DHT22;46825;51.99869940;8.49421771;2023-05-07T01:35:07;12.40;99.90
1644;DHT22;46825;51.99869940;8.49421771;2023-05-07T01:36:11;12.40;99.90
1644;DHT22;46825;51.99869940;8.49421771;2023-05-07T01:37:13;12.40;99.90
1644;DHT22;46825;51.99869940;8.49421771;2023-05-07T01:38:14;12.50;99.90
1644;DHT22;46825;51.99869940;8.49421771;2023-05-07T01:39:15;12.50;99.90
1644;DHT22;46825;51.99869940;8.49421771;2023-05-07T01:41:19;12.50;99.90
1644;DHT22;46825;51.99869940;8.49421771;2023-05-07T01:42:20;12.40;99.90
1644;DHT22;46825;51.99869940;8.49421771;2023-05-07T01:43:20;12.40;99.90
1644;DHT22;46825;51.99869940;8.49421771;2023-05-07T01:44:21;12.30;99.90
1644;DHT22;46825;51.99869940;8.49421771;2023-05-07T01:45:23;12.30;99.90
1644;DHT22;46825;51.99869940;8.49421771;2023-05-07T01:46:24;12.30;99.90
1644;DHT22;46825;51.99869940;8.49421771;2023-05-07T01:48:27;12.30;99.90
1644;DHT22;46825;51.99869940;8.49421771;2023-05-07T01:49:28;12.30;99.90
1644;DHT22;46825;51.99869940;8.49421771;2023-05-07T01:50:30;12.30;99.90
1644;DHT22;46825;51.99869940;8.49421771;2023-05-07T01:51:31;12.20;99.90
1644;DHT22;46825;51.99869940;8.49421771;2023-05-07T01:52:34;12.30;99.90
1644;DHT22;46825;51.99869940;8.49421771;2023-05-07T01:53:39;12.30;99.90
1644;DHT22;46825;51.99869940;8.49421771;2023-05-07T01:54:40;12.20;99.90
1644;DHT22;46825;51.99869940;8.49421771;2023-05-07T01:55:41;12.20;99.90
1644;DHT22;46825;51.99869940;8.49421771;2023-05-07T01:56:42;12.20;99.90
1644;DHT22;46825;51.99869940;8.49421771;2023-05-07T01:59:46;12.20;99.90
1644;DHT22;46825;51.99869940;8.49421771;2023-05-07T02:00:47;12.20;99.90
1644;DHT22;46825;51.99869940;8.49421771;2023-05-07T02:01:47;12.20;99.90
1644;DHT22;46825;51.99869940;8.49421771;2023-05-07T02:02:48;12.20;99.90
1644;DHT22;46825;51.99869940;8.49421771;2023-05-07T02:03:48;12.10;99.90
1644;DHT22;46825;51.99869940;8.49421771;2023-05-07T02:04:49;12.10;99.90
1644;DHT22;46825;51.99869940;8.49421771;2023-05-07T02:05:52;12.10;99.90
1644;DHT22;46825;51.99869940;8.49421771;2023-05-07T02:06:52;12.10;99.90
1644;DHT22;46825;51.99869940;8.49421771;2023-05-07T02:08:54;12.10;99.90
1644;DHT22;46825;51.99869940;8.49421771;2023-05-07T02:09:54;12.10;99.90
1644;DHT22;46825;51.99869940;8.49421771;2023-05-07T02:10:58;12.10;99.90
1644;DHT22;46825;51.99869940;8.49421771;2023-05-07T02:11:58;12.10;99.90
1644;DHT22;46825;51.99869940;8.49421771;2023-05-07T02:13:00;12.10;99.90
1644;DHT22;46825;51.99869940;8.49421771;2023-05-07T02:14:02;12.10;99.90
1644;DHT22;46825;51.99869940;8.49421771;2023-05-07T02:15:02;12.10;99.90
1644;DHT22;46825;51.99869940;8.49421771;2023-05-07T02:17:04;12.10;99.90
1644;DHT22;46825;51.99869940;8.49421771;2023-05-07T02:19:07;12.10;99.90
1644;DHT22;46825;51.99869940;8.49421771;2023-05-07T02:21:13;12.00;99.90
1644;DHT22;46825;51.99869940;8.49421771;2023-05-07T02:22:14;12.10;99.90
1644;DHT22;46825;51.99869940;8.49421771;2023-05-07T02:23:14;12.10;99.90
1644;DHT22;46825;51.99869940;8.49421771;2023-05-07T02:24:15;12.00;99.90
1644;DHT22;46825;51.99869940;8.49421771;2023-05-07T02:25:15;12.10;99.90
1644;DHT22;46825;51.99869940;8.49421771;2023-05-07T02:26:16;12.10;99.90
1644;DHT22;46825;51.99869940;8.49421771;2023-05-07T02:27:17;12.10;99.90
1644;DHT22;46825;51.99869940;8.49421771;2023-05-07T02:28:17;12.10;99.90
1644;DHT22;46825;51.99869940;8.49421771;2023-05-07T02:30:19;12.20;99.90
1644;DHT22;46825;51.99869940;8.49421771;2023-05-07T02:31:21;12.20;99.90
1644;DHT22;46825;51.99869940;8.49421771;2023-05-07T02:32:22;12.10;99.90
1644;DHT22;46825;51.99869940;8.49421771;2023-05-07T02:33:23;12.10;99.90
1644;DHT22;46825;51.99869940;8.49421771;2023-05-07T02:34:24;12.10;99.90
1644;DHT22;46825;51.99869940;8.49421771;2023-05-07T02:35:25;12.10;99.90
1644;DHT22;46825;51.99869940;8.49421771;2023-05-07T02:36:26;12.10;99.90
1644;DHT22;46825;51.99869940;8.49421771;2023-05-07T02:37:29;12.10;99.90
1644;DHT22;46825;51.99869940;8.49421771;2023-05-07T02:38:30;12.10;99.90
1644;DHT22;46825;51.99869940;8.49421771;2023-05-07T02:39:30;12.10;99.90
1644;DHT22;46825;51.99869940;8.49421771;2023-05-07T02:40:31;12.00;99.90
1644;DHT22;46825;51.99869940;8.49421771;2023-05-07T02:41:34;12.00;99.90
1644;DHT22;46825;51.99869940;8.49421771;2023-05-07T02:42:34;12.00;99.90
1644;DHT22;46825;51.99869940;8.49421771;2023-05-07T02:43:36;12.00;99.90
1644;DHT22;46825;51.99869940;8.49421771;2023-05-07T02:44:37;12.00;99.90
1644;DHT22;46825;51.99869940;8.49421771;2023-05-07T02:45:37;12.00;99.90
1644;DHT22;46825;51.99869940;8.49421771;2023-05-07T02:46:38;12.00;99.90
1644;DHT22;46825;51.99869940;8.49421771;2023-05-07T02:47:38;12.00;99.90
1644;DHT22;46825;51.99869940;8.49421771;2023-05-07T02:48:39;12.00;99.90
1644;DHT22;46825;51.99869940;8.49421771;2023-05-07T02:49:40;12.00;99.90
1644;DHT22;46825;51.99869940;8.49421771;2023-05-07T02:50:40;12.00;99.90
1644;DHT22;46825;51.99869940;8.49421771;2023-05-07T02:51:41;11.90;99.90
1644;DHT22;46825;51.99869940;8.49421771;2023-05-07T02:52:41;11.90;99.90
1644;DHT22;46825;51.99869940;8.49421771;2023-05-07T02:53:42;11.90;99.90
1644;DHT22;46825;51.99869940;8.49421771;2023-05-07T02:54:43;11.90;99.90
1644;DHT22;46825;51.99869940;8.49421771;2023-05-07T02:55:43;11.90;99.90
1644;DHT22;46825;51.99869940;8.49421771;2023-05-07T02:56:44;11.90;99.90
1644;DHT22;46825;51.99869940;8.49421771;2023-05-07T03:00:49;11.80;99.90
1644;DHT22;46825;51.99869940;8.49421771;2023-05-07T03:01:50;11.80;99.90
1644;DHT22;46825;51.99869940;8.49421771;2023-05-07T03:03:51;11.90;99.90
1644;DHT22;46825;51.99869940;8.49421771;2023-05-07T03:04:52;11.80;99.90
1644;DHT22;46825;51.99869940;8.49421771;2023-05-07T03:05:53;11.90;99.90
1644;DHT22;46825;51.99869940;8.49421771;2023-05-07T03:06:53;11.90;99.90
1644;DHT22;46825;51.99869940;8.49421771;2023-05-07T03:09:56;11.90;99.90
1644;DHT22;46825;51.99869940;8.49421771;2023-05-07T03:12:58;11.90;99.90
1644;DHT22;46825;51.99869940;8.49421771;2023-05-07T03:13:59;11.90;99.90
1644;DHT22;46825;51.99869940;8.49421771;2023-05-07T03:15:00;11.90;99.90
1644;DHT22;46825;51.99869940;8.49421771;2023-05-07T03:17:02;11.80;99.90
1644;DHT22;46825;51.99869940;8.49421771;2023-05-07T03:21:06;11.80;99.90
1644;DHT22;46825;51.99869940;8.49421771;2023-05-07T03:22:06;11.80;99.90
1644;DHT22;46825;51.99869940;8.49421771;2023-05-07T03:25:09;11.70;99.90
1644;DHT22;46825;51.99869940;8.49421771;2023-05-07T03:26:10;11.70;99.90
1644;DHT22;46825;51.99869940;8.49421771;2023-05-07T03:27:10;11.70;99.90
1644;DHT22;46825;51.99869940;8.49421771;2023-05-07T03:28:11;11.80;99.90
1644;DHT22;46825;51.99869940;8.49421771;2023-05-07T03:29:11;11.80;99.90
1644;DHT22;46825;51.99869940;8.49421771;2023-05-07T03:30:12;11.80;99.90
1644;DHT22;46825;51.99869940;8.49421771;2023-05-07T03:31:13;11.80;99.90
1644;DHT22;46825;51.99869940;8.49421771;2023-05-07T03:32:13;11.70;99.90
1644;DHT22;46825;51.99869940;8.49421771;2023-05-07T03:33:14;11.80;99.90
1644;DHT22;46825;51.99869940;8.49421771;2023-05-07T03:34:15;11.70;99.90
1644;DHT22;46825;51.99869940;8.49421771;2023-05-07T03:35:17;11.70;99.90
1644;DHT22;46825;51.99869940;8.49421771;2023-05-07T03:36:17;11.70;99.90
1644;DHT22;46825;51.99869940;8.49421771;2023-05-07T03:39:20;11.70;99.90
1644;DHT22;46825;51.99869940;8.49421771;2023-05-07T03:42:23;11.70;99.90
1644;DHT22;46825;51.99869940;8.49421771;2023-05-07T03:43:24;11.70;99.90
1644;DHT22;46825;51.99869940;8.49421771;2023-05-07T03:44:24;11.70;99.90
1644;DHT22;46825;51.99869940;8.49421771;2023-05-07T03:45:25;11.70;99.90
1644;DHT22;46825;51.99869940;8.49421771;2023-05-07T03:46:26;11.70;99.90
1644;DHT22;46825;51.99869940;8.49421771;2023-05-07T03:47:28;11.70;99.90
1644;DHT22;46825;51.99869940;8.49421771;2023-05-07T03:48:28;11.70;99.90
1644;DHT22;46825;51.99869940;8.49421771;2023-05-07T03:50:30;11.70;99.90
1644;DHT22;46825;51.99869940;8.49421771;2023-05-07T03:51:31;11.70;99.90
1644;DHT22;46825;51.99869940;8.49421771;2023-05-07T03:52:31;11.70;99.90
1644;DHT22;46825;51.99869940;8.49421771;2023-05-07T03:55:34;11.70;99.90
1644;DHT22;46825;51.99869940;8.49421771;2023-05-07T03:56:35;11.70;99.90
1644;DHT22;46825;51.99869940;8.49421771;2023-05-07T03:59:37;11.70;99.90
1644;DHT22;46825;51.99869940;8.49421771;2023-05-07T04:00:38;11.80;99.90
1644;DHT22;46825;51.99869940;8.49421771;2023-05-07T04:02:41;11.70;99.90
1644;DHT22;46825;51.99869940;8.49421771;2023-05-07T04:03:41;11.70;99.90
1644;DHT22;46825;51.99869940;8.49421771;2023-05-07T04:04:42;11.80;99.90
1644;DHT22;46825;51.99869940;8.49421771;2023-05-07T04:05:42;11.70;99.90
1644;DHT22;46825;51.99869940;8.49421771;2023-05-07T04:06:43;11.70;99.90
1644;DHT22;46825;51.99869940;8.49421771;2023-05-07T04:08:45;11.70;99.90
1644;DHT22;46825;51.99869940;8.49421771;2023-05-07T04:09:45;11.70;99.90
1644;DHT22;46825;51.99869940;8.49421771;2023-05-07T04:10:46;11.70;99.90
1644;DHT22;46825;51.99869940;8.49421771;2023-05-07T04:11:46;11.70;99.90
1644;DHT22;46825;51.99869940;8.49421771;2023-05-07T04:12:47;11.70;99.90
1644;DHT22;46825;51.99869940;8.49421771;2023-05-07T04:13:47;11.70;99.90
1644;DHT22;46825;51.99869940;8.49421771;2023-05-07T04:14:48;11.70;99.90
1644;DHT22;46825;51.99869940;8.49421771;2023-05-07T04:15:49;11.70;99.90
1644;DHT22;46825;51.99869940;8.49421771;2023-05-07T04:16:49;11.70;99.90
1644;DHT22;46825;51.99869940;8.49421771;2023-05-07T04:18:51;11.70;99.90
1644;DHT22;46825;51.99869940;8.49421771;2023-05-07T04:20:53;11.70;99.90
1644;DHT22;46825;51.99869940;8.49421771;2023-05-07T04:21:54;11.70;99.90
1644;DHT22;46825;51.99869940;8.49421771;2023-05-07T04:22:54;12.00;99.90
1644;DHT22;46825;51.99869940;8.49421771;2023-05-07T04:23:55;11.80;99.90
1644;DHT22;46825;51.99869940;8.49421771;2023-05-07T04:24:56;11.80;99.90
1644;DHT22;46825;51.99869940;8.49421771;2023-05-07T04:25:56;11.80;99.90
1644;DHT22;46825;51.99869940;8.49421771;2023-05-07T04:26:57;12.10;99.90
1644;DHT22;46825;51.99869940;8.49421771;2023-05-07T04:29:00;11.80;99.90
1644;DHT22;46825;51.99869940;8.49421771;2023-05-07T04:30:03;11.80;99.90
1644;DHT22;46825;51.99869940;8.49421771;2023-05-07T04:31:04;11.70;99.90
1644;DHT22;46825;51.99869940;8.49421771;2023-05-07T04:35:09;11.80;99.90
1644;DHT22;46825;51.99869940;8.49421771;2023-05-07T04:37:11;11.80;99.90
1644;DHT22;46825;51.99869940;8.49421771;2023-05-07T04:38:12;11.90;99.90
1644;DHT22;46825;51.99869940;8.49421771;2023-05-07T04:39:12;11.90;99.90
1644;DHT22;46825;51.99869940;8.49421771;2023-05-07T04:41:14;11.90;99.90
1644;DHT22;46825;51.99869940;8.49421771;2023-05-07T04:42:16;11.90;99.90
1644;DHT22;46825;51.99869940;8.49421771;2023-05-07T04:46:21;11.80;99.90
1644;DHT22;46825;51.99869940;8.49421771;2023-05-07T04:48:22;11.80;99.90
1644;DHT22;46825;51.99869940;8.49421771;2023-05-07T04:49:23;11.80;99.90
1644;DHT22;46825;51.99869940;8.49421771;2023-05-07T04:50:23;11.70;99.90
1644;DHT22;46825;51.99869940;8.49421771;2023-05-07T04:51:24;11.80;99.90
1644;DHT22;46825;51.99869940;8.49421771;2023-05-07T04:52:25;11.90;99.90
1644;DHT22;46825;51.99869940;8.49421771;2023-05-07T04:53:26;11.80;99.90
1644;DHT22;46825;51.99869940;8.49421771;2023-05-07T04:55:28;11.80;99.90
1644;DHT22;46825;51.99869940;8.49421771;2023-05-07T04:58:31;11.80;99.90
1644;DHT22;46825;51.99869940;8.49421771;2023-05-07T04:59:32;11.80;99.90
1644;DHT22;46825;51.99869940;8.49421771;2023-05-07T05:00:33;11.80;99.90
1644;DHT22;46825;51.99869940;8.49421771;2023-05-07T05:01:34;11.80;99.90
1644;DHT22;46825;51.99869940;8.49421771;2023-05-07T05:02:35;11.80;99.90
1644;DHT22;46825;51.99869940;8.49421771;2023-05-07T05:03:35;11.80;99.90
1644;DHT22;46825;51.99869940;8.49421771;2023-05-07T05:06:39;11.90;99.90
1644;DHT22;46825;51.99869940;8.49421771;2023-05-07T05:08:41;11.90;99.90
1644;DHT22;46825;51.99869940;8.49421771;2023-05-07T05:11:44;11.90;99.90
1644;DHT22;46825;51.99869940;8.49421771;2023-05-07T05:12:44;11.80;99.90
1644;DHT22;46825;51.99869940;8.49421771;2023-05-07T05:13:45;11.80;99.90
1644;DHT22;46825;51.99869940;8.49421771;2023-05-07T05:14:47;11.80;99.90
1644;DHT22;46825;51.99869940;8.49421771;2023-05-07T05:15:48;11.80;99.90
1644;DHT22;46825;51.99869940;8.49421771;2023-05-07T05:16:48;11.80;99.90
1644;DHT22;46825;51.99869940;8.49421771;2023-05-07T05:19:52;11.90;99.90
1644;DHT22;46825;51.99869940;8.49421771;2023-05-07T05:20:52;11.90;99.90
1644;DHT22;46825;51.99869940;8.49421771;2023-05-07T05:21:53;11.90;99.90
1644;DHT22;46825;51.99869940;8.49421771;2023-05-07T05:24:56;11.90;99.90
1644;DHT22;46825;51.99869940;8.49421771;2023-05-07T05:25:57;11.90;99.90
1644;DHT22;46825;51.99869940;8.49421771;2023-05-07T05:26:58;12.00;99.90
1644;DHT22;46825;51.99869940;8.49421771;2023-05-07T05:28:01;12.00;99.90
1644;DHT22;46825;51.99869940;8.49421771;2023-05-07T05:30:03;12.10;99.90
1644;DHT22;46825;51.99869940;8.49421771;2023-05-07T05:31:05;12.10;99.90
1644;DHT22;46825;51.99869940;8.49421771;2023-05-07T05:32:05;12.20;99.90
1644;DHT22;46825;51.99869940;8.49421771;2023-05-07T05:33:06;12.10;99.90
1644;DHT22;46825;51.99869940;8.49421771;2023-05-07T05:34:07;12.30;99.90
1644;DHT22;46825;51.99869940;8.49421771;2023-05-07T05:35:08;12.30;99.90
1644;DHT22;46825;51.99869940;8.49421771;2023-05-07T05:37:13;12.40;99.90
1644;DHT22;46825;51.99869940;8.49421771;2023-05-07T05:38:14;12.40;99.90
1644;DHT22;46825;51.99869940;8.49421771;2023-05-07T05:39:14;12.40;99.90
1644;DHT22;46825;51.99869940;8.49421771;2023-05-07T05:40:15;12.40;99.90
1644;DHT22;46825;51.99869940;8.49421771;2023-05-07T05:41:15;12.40;99.90
1644;DHT22;46825;51.99869940;8.49421771;2023-05-07T05:42:16;12.40;99.90
1644;DHT22;46825;51.99869940;8.49421771;2023-05-07T05:43:16;12.40;99.90
1644;DHT22;46825;51.99869940;8.49421771;2023-05-07T05:45:18;12.40;99.90
1644;DHT22;46825;51.99869940;8.49421771;2023-05-07T05:46:18;12.40;99.90
1644;DHT22;46825;51.99869940;8.49421771;2023-05-07T05:47:19;12.50;99.90
1644;DHT22;46825;51.99869940;8.49421771;2023-05-07T05:48:19;12.50;99.90
1644;DHT22;46825;51.99869940;8.49421771;2023-05-07T05:50:22;12.60;99.90
1644;DHT22;46825;51.99869940;8.49421771;2023-05-07T05:51:22;12.50;99.90
1644;DHT22;46825;51.99869940;8.49421771;2023-05-07T05:53:24;12.60;99.90
1644;DHT22;46825;51.99869940;8.49421771;2023-05-07T05:54:25;12.70;99.90
1644;DHT22;46825;51.99869940;8.49421771;2023-05-07T05:55:26;12.70;99.90
1644;DHT22;46825;51.99869940;8.49421771;2023-05-07T05:56:27;12.70;99.90
1644;DHT22;46825;51.99869940;8.49421771;2023-05-07T05:57:27;12.70;99.90
1644;DHT22;46825;51.99869940;8.49421771;2023-05-07T05:58:28;12.80;99.90
1644;DHT22;46825;51.99869940;8.49421771;2023-05-07T05:59:29;13.10;99.90
1644;DHT22;46825;51.99869940;8.49421771;2023-05-07T06:02:31;12.80;99.90
1644;DHT22;46825;51.99869940;8.49421771;2023-05-07T06:03:32;12.90;99.90
1644;DHT22;46825;51.99869940;8.49421771;2023-05-07T06:04:33;12.90;99.90
1644;DHT22;46825;51.99869940;8.49421771;2023-05-07T06:05:33;12.90;99.90
1644;DHT22;46825;51.99869940;8.49421771;2023-05-07T06:06:34;13.00;99.90
1644;DHT22;46825;51.99869940;8.49421771;2023-05-07T06:07:35;13.00;99.90
1644;DHT22;46825;51.99869940;8.49421771;2023-05-07T06:08:35;13.10;99.90
1644;DHT22;46825;51.99869940;8.49421771;2023-05-07T06:09:36;13.10;99.90
1644;DHT22;46825;51.99869940;8.49421771;2023-05-07T06:10:37;13.10;99.90
1644;DHT22;46825;51.99869940;8.49421771;2023-05-07T06:11:38;13.20;99.90
1644;DHT22;46825;51.99869940;8.49421771;2023-05-07T06:12:39;13.00;99.90
1644;DHT22;46825;51.99869940;8.49421771;2023-05-07T06:15:43;12.90;99.90
1644;DHT22;46825;51.99869940;8.49421771;2023-05-07T06:16:44;13.10;99.90
1644;DHT22;46825;51.99869940;8.49421771;2023-05-07T06:17:45;13.10;99.90
1644;DHT22;46825;51.99869940;8.49421771;2023-05-07T06:19:47;13.20;99.90
1644;DHT22;46825;51.99869940;8.49421771;2023-05-07T06:20:47;13.20;99.90
1644;DHT22;46825;51.99869940;8.49421771;2023-05-07T06:21:48;13.20;99.90
1644;DHT22;46825;51.99869940;8.49421771;2023-05-07T06:22:49;13.20;99.90
1644;DHT22;46825;51.99869940;8.49421771;2023-05-07T06:23:50;13.30;99.90
1644;DHT22;46825;51.99869940;8.49421771;2023-05-07T06:24:52;13.30;99.90
1644;DHT22;46825;51.99869940;8.49421771;2023-05-07T06:25:53;13.30;99.90
1644;DHT22;46825;51.99869940;8.49421771;2023-05-07T06:26:53;13.30;99.90
1644;DHT22;46825;51.99869940;8.49421771;2023-05-07T06:27:54;13.30;99.90
1644;DHT22;46825;51.99869940;8.49421771;2023-05-07T06:28:54;13.30;99.90
1644;DHT22;46825;51.99869940;8.49421771;2023-05-07T06:29:55;13.30;99.90
1644;DHT22;46825;51.99869940;8.49421771;2023-05-07T06:30:55;13.30;99.90
1644;DHT22;46825;51.99869940;8.49421771;2023-05-07T06:32:12;13.30;99.90
1644;DHT22;46825;51.99869940;8.49421771;2023-05-07T06:33:12;13.10;99.90
1644;DHT22;46825;51.99869940;8.49421771;2023-05-07T06:35:14;13.30;99.90
1644;DHT22;46825;51.99869940;8.49421771;2023-05-07T06:36:15;13.40;99.90
1644;DHT22;46825;51.99869940;8.49421771;2023-05-07T06:37:16;13.40;99.90
1644;DHT22;46825;51.99869940;8.49421771;2023-05-07T06:38:16;13.50;99.90
1644;DHT22;46825;51.99869940;8.49421771;2023-05-07T06:39:17;13.50;99.90
1644;DHT22;46825;51.99869940;8.49421771;2023-05-07T06:40:18;13.60;99.90
1644;DHT22;46825;51.99869940;8.49421771;2023-05-07T06:41:18;13.50;99.90
1644;DHT22;46825;51.99869940;8.49421771;2023-05-07T06:42:19;13.50;99.90
1644;DHT22;46825;51.99869940;8.49421771;2023-05-07T06:43:20;13.40;99.90
1644;DHT22;46825;51.99869940;8.49421771;2023-05-07T06:45:21;13.50;99.90
1644;DHT22;46825;51.99869940;8.49421771;2023-05-07T06:46:22;13.50;99.90
1644;DHT22;46825;51.99869940;8.49421771;2023-05-07T06:48:24;13.60;99.90
1644;DHT22;46825;51.99869940;8.49421771;2023-05-07T06:49:24;13.70;99.90
1644;DHT22;46825;51.99869940;8.49421771;2023-05-07T06:50:25;13.60;99.90
1644;DHT22;46825;51.99869940;8.49421771;2023-05-07T06:52:27;13.60;99.90
1644;DHT22;46825;51.99869940;8.49421771;2023-05-07T06:56:33;13.60;99.90
1644;DHT22;46825;51.99869940;8.49421771;2023-05-07T06:57:34;13.50;99.90
1644;DHT22;46825;51.99869940;8.49421771;2023-05-07T06:58:34;13.60;99.90
1644;DHT22;46825;51.99869940;8.49421771;2023-05-07T06:59:35;13.50;99.90
1644;DHT22;46825;51.99869940;8.49421771;2023-05-07T07:00:36;13.60;99.90
1644;DHT22;46825;51.99869940;8.49421771;2023-05-07T07:01:36;13.60;99.90
1644;DHT22;46825;51.99869940;8.49421771;2023-05-07T07:02:37;13.60;99.90
1644;DHT22;46825;51.99869940;8.49421771;2023-05-07T07:03:38;13.70;99.90
1644;DHT22;46825;51.99869940;8.49421771;2023-05-07T07:04:39;13.70;99.90
1644;DHT22;46825;51.99869940;8.49421771;2023-05-07T07:05:41;13.80;99.90
1644;DHT22;46825;51.99869940;8.49421771;2023-05-07T07:06:42;13.80;99.90
1644;DHT22;46825;51.99869940;8.49421771;2023-05-07T07:08:43;13.90;99.90
1644;DHT22;46825;51.99869940;8.49421771;2023-05-07T07:09:44;13.90;99.90
1644;DHT22;46825;51.99869940;8.49421771;2023-05-07T07:10:44;14.00;99.90
1644;DHT22;46825;51.99869940;8.49421771;2023-05-07T07:11:45;13.90;99.90
1644;DHT22;46825;51.99869940;8.49421771;2023-05-07T07:12:46;13.70;99.90
1644;DHT22;46825;51.99869940;8.49421771;2023-05-07T07:13:46;13.80;99.90
1644;DHT22;46825;51.99869940;8.49421771;2023-05-07T07:15:48;13.80;99.90